createdAt,value
2018-10-16T00:00:10.003Z,0.00
2018-10-16T00:01:10.003Z,0.00
2018-10-16T00:02:09.925Z,0.00
2018-10-16T00:03:10.060Z,0.00
2018-10-16T00:04:09.926Z,0.00
2018-10-16T00:05:09.930Z,0.00
2018-10-16T00:06:09.887Z,0.00
2018-10-16T00:07:09.937Z,0.00
2018-10-16T00:08:09.891Z,0.00
2018-10-16T00:09:09.819Z,0.00
2018-10-16T00:10:09.893Z,0.00
2018-10-16T00:11:09.822Z,0.00
2018-10-16T00:12:09.817Z,0.00
2018-10-16T00:13:09.891Z,0.00
2018-10-16T00:14:09.892Z,0.00
2018-10-16T00:15:09.892Z,0.00
2018-10-16T00:16:09.774Z,0.00
2018-10-16T00:17:09.776Z,0.00
2018-10-16T00:18:09.777Z,0.00
2018-10-16T00:19:09.776Z,0.00
2018-10-16T00:20:09.697Z,0.00
2018-10-16T00:21:09.697Z,0.00
2018-10-16T00:22:09.703Z,0.00
2018-10-16T00:23:09.778Z,0.00
2018-10-16T00:24:09.780Z,0.00
2018-10-16T00:25:09.710Z,0.00
2018-10-16T00:26:09.662Z,0.00
2018-10-16T00:27:09.665Z,0.00
2018-10-16T00:28:09.666Z,0.00
2018-10-16T00:29:09.600Z,0.00
2018-10-16T00:30:09.665Z,0.00
2018-10-16T00:31:09.584Z,0.00
2018-10-16T00:32:09.584Z,0.00
2018-10-16T00:33:09.589Z,0.00
2018-10-16T00:34:09.589Z,0.00
2018-10-16T00:35:09.595Z,0.00
2018-10-16T00:36:09.550Z,0.00
2018-10-16T00:37:09.549Z,0.00
2018-10-16T00:38:09.549Z,0.00
2018-10-16T00:39:09.549Z,0.00
2018-10-16T00:40:09.553Z,0.00
2018-10-16T00:41:09.550Z,0.00
2018-10-16T00:42:09.473Z,0.00
2018-10-16T00:43:09.470Z,0.00
2018-10-16T00:44:09.555Z,0.00
2018-10-16T00:45:09.479Z,0.00
2018-10-16T00:46:09.472Z,0.00
2018-10-16T00:47:09.446Z,0.00
2018-10-16T00:48:09.440Z,0.00
2018-10-16T00:49:09.436Z,0.00
2018-10-16T00:50:09.437Z,0.00
2018-10-16T00:51:09.356Z,0.00
2018-10-16T00:52:09.438Z,0.00
2018-10-16T00:53:09.440Z,0.00
2018-10-16T00:54:09.362Z,0.00
2018-10-16T00:55:09.368Z,0.00
2018-10-16T00:56:09.331Z,0.00
2018-10-16T00:57:09.362Z,0.00
2018-10-16T00:58:09.325Z,0.00
2018-10-16T00:59:09.325Z,0.00
2018-10-16T01:00:09.253Z,0.00
2018-10-16T01:01:09.246Z,0.00
2018-10-16T01:02:09.334Z,0.00
2018-10-16T01:03:09.243Z,0.00
2018-10-16T01:04:09.259Z,0.00
2018-10-16T01:05:09.252Z,0.00
2018-10-16T01:06:09.211Z,0.00
2018-10-16T01:07:09.210Z,0.00
2018-10-16T01:08:09.214Z,0.00
2018-10-16T01:09:09.211Z,0.00
2018-10-16T01:10:09.215Z,0.00
2018-10-16T01:11:09.140Z,0.00
2018-10-16T01:12:09.133Z,0.00
2018-10-16T01:13:09.264Z,0.00
2018-10-16T01:14:09.139Z,0.00
2018-10-16T01:15:09.142Z,0.00
2018-10-16T01:16:09.141Z,0.00
2018-10-16T01:17:09.098Z,0.00
2018-10-16T01:18:09.101Z,0.00
2018-10-16T01:19:09.097Z,0.00
2018-10-16T01:20:09.034Z,0.00
2018-10-16T01:21:09.031Z,0.00
2018-10-16T01:22:09.016Z,0.00
2018-10-16T01:23:09.100Z,0.00
2018-10-16T01:24:09.021Z,0.00
2018-10-16T01:25:09.033Z,0.00
2018-10-16T01:26:09.025Z,0.00
2018-10-16T01:27:09.024Z,0.00
2018-10-16T01:28:08.984Z,0.00
2018-10-16T01:29:08.988Z,0.00
2018-10-16T01:30:08.986Z,0.00
2018-10-16T01:31:08.908Z,0.00
2018-10-16T01:32:08.993Z,0.00
2018-10-16T01:33:08.904Z,0.00
2018-10-16T01:34:08.906Z,0.00
2018-10-16T01:35:08.987Z,0.00
2018-10-16T01:36:08.904Z,0.00
2018-10-16T01:37:08.871Z,0.00
2018-10-16T01:38:08.873Z,0.00
2018-10-16T01:39:08.872Z,0.00
2018-10-16T01:40:08.871Z,0.00
2018-10-16T01:41:08.799Z,0.00
2018-10-16T01:42:08.873Z,0.00
2018-10-16T01:43:08.874Z,0.00
2018-10-16T01:44:08.800Z,0.00
2018-10-16T01:45:08.799Z,0.00
2018-10-16T01:46:08.794Z,0.00
2018-10-16T01:47:08.793Z,0.00
2018-10-16T01:48:08.761Z,0.00
2018-10-16T01:49:08.760Z,0.00
2018-10-16T01:50:08.759Z,0.00
2018-10-16T01:51:08.758Z,0.00
2018-10-16T01:52:08.693Z,0.00
2018-10-16T01:53:08.761Z,0.00
2018-10-16T01:54:08.765Z,0.00
2018-10-16T01:55:08.762Z,0.00
2018-10-16T01:56:08.681Z,0.00
2018-10-16T01:57:08.681Z,0.00
2018-10-16T01:58:08.684Z,0.00
2018-10-16T01:59:08.644Z,0.00
2018-10-16T02:00:08.764Z,0.00
2018-10-16T02:01:08.585Z,0.00
2018-10-16T02:02:08.647Z,0.00
2018-10-16T02:03:08.649Z,0.00
2018-10-16T02:04:08.580Z,0.00
2018-10-16T02:05:08.582Z,0.00
2018-10-16T02:06:08.649Z,0.00
2018-10-16T02:07:08.537Z,0.00
2018-10-16T02:08:08.710Z,0.00
2018-10-16T02:09:08.553Z,0.00
2018-10-16T02:10:08.464Z,0.00
2018-10-16T02:11:08.462Z,0.00
2018-10-16T02:12:08.533Z,0.00
2018-10-16T02:13:08.457Z,0.00
2018-10-16T02:14:08.535Z,0.00
2018-10-16T02:15:08.457Z,0.00
2018-10-16T02:16:08.461Z,0.00
2018-10-16T02:17:08.418Z,0.00
2018-10-16T02:18:08.419Z,0.00
2018-10-16T02:19:08.420Z,0.00
2018-10-16T02:20:08.420Z,0.00
2018-10-16T02:21:08.344Z,0.00
2018-10-16T02:22:08.343Z,0.00
2018-10-16T02:23:08.342Z,0.00
2018-10-16T02:24:08.349Z,0.00
2018-10-16T02:25:08.427Z,0.00
2018-10-16T02:26:08.424Z,0.00
2018-10-16T02:27:08.308Z,0.00
2018-10-16T02:28:08.307Z,0.00
2018-10-16T02:29:08.306Z,0.00
2018-10-16T02:30:08.309Z,0.00
2018-10-16T02:31:08.309Z,0.00
2018-10-16T02:32:08.232Z,0.00
2018-10-16T02:33:08.307Z,0.00
2018-10-16T02:34:08.233Z,0.00
2018-10-16T02:35:08.226Z,0.00
2018-10-16T02:36:08.231Z,0.00
2018-10-16T02:37:08.235Z,0.00
2018-10-16T02:38:08.192Z,0.00
2018-10-16T02:39:08.194Z,0.00
2018-10-16T02:40:08.196Z,0.00
2018-10-16T02:41:08.195Z,0.00
2018-10-16T02:42:08.123Z,0.00
2018-10-16T02:43:08.120Z,0.00
2018-10-16T02:44:08.196Z,0.00
2018-10-16T02:45:08.122Z,0.00
2018-10-16T02:46:08.198Z,0.00
2018-10-16T02:47:08.082Z,0.00
2018-10-16T02:48:08.080Z,0.00
2018-10-16T02:49:08.079Z,0.00
2018-10-16T02:50:08.080Z,0.00
2018-10-16T02:51:08.011Z,0.00
2018-10-16T02:52:08.083Z,0.00
2018-10-16T02:53:08.082Z,0.00
2018-10-16T02:54:08.259Z,0.00
2018-10-16T02:55:08.011Z,0.00
2018-10-16T02:56:08.130Z,0.00
2018-10-16T02:57:08.085Z,0.00
2018-10-16T02:58:08.090Z,0.00
2018-10-16T02:59:07.969Z,0.00
2018-10-16T03:00:07.977Z,0.00
2018-10-16T03:01:07.966Z,0.00
2018-10-16T03:02:07.974Z,0.00
2018-10-16T03:03:07.893Z,0.00
2018-10-16T03:04:07.903Z,0.00
2018-10-16T03:05:07.970Z,0.00
2018-10-16T03:06:07.895Z,0.00
2018-10-16T03:07:07.907Z,0.00
2018-10-16T03:08:07.908Z,0.00
2018-10-16T03:09:07.897Z,0.00
2018-10-16T03:10:07.855Z,0.00
2018-10-16T03:11:07.853Z,0.00
2018-10-16T03:12:07.778Z,0.00
2018-10-16T03:13:07.856Z,0.00
2018-10-16T03:14:07.781Z,0.00
2018-10-16T03:15:07.779Z,0.00
2018-10-16T03:16:07.859Z,0.00
2018-10-16T03:17:07.786Z,0.00
2018-10-16T03:18:07.859Z,0.00
2018-10-16T03:19:07.741Z,0.00
2018-10-16T03:20:07.740Z,0.00
2018-10-16T03:21:07.741Z,0.00
2018-10-16T03:22:07.666Z,0.00
2018-10-16T03:23:07.741Z,0.00
2018-10-16T03:24:07.742Z,0.00
2018-10-16T03:25:07.743Z,0.00
2018-10-16T03:26:07.745Z,0.00
2018-10-16T03:27:07.747Z,0.00
2018-10-16T03:28:07.627Z,0.00
2018-10-16T03:29:07.631Z,0.00
2018-10-16T03:30:07.627Z,0.00
2018-10-16T03:31:07.628Z,0.00
2018-10-16T03:32:07.557Z,0.00
2018-10-16T03:33:07.562Z,0.00
2018-10-16T03:34:07.560Z,0.00
2018-10-16T03:35:07.631Z,0.00
2018-10-16T03:36:07.630Z,0.00
2018-10-16T03:37:07.554Z,0.00
2018-10-16T03:38:07.513Z,0.00
2018-10-16T03:39:07.514Z,0.00
2018-10-16T03:40:07.515Z,0.00
2018-10-16T03:41:07.517Z,0.00
2018-10-16T03:42:07.452Z,0.00
2018-10-16T03:43:07.444Z,0.00
2018-10-16T03:44:07.433Z,0.00
2018-10-16T03:45:07.517Z,0.00
2018-10-16T03:46:07.445Z,0.00
2018-10-16T03:47:07.522Z,0.00
2018-10-16T03:48:07.519Z,0.00
2018-10-16T03:49:07.400Z,0.00
2018-10-16T03:50:07.402Z,0.00
2018-10-16T03:51:07.400Z,0.00
2018-10-16T03:52:07.335Z,0.00
2018-10-16T03:53:07.330Z,0.00
2018-10-16T03:54:07.403Z,0.00
2018-10-16T03:55:07.404Z,0.00
2018-10-16T03:56:07.332Z,0.00
2018-10-16T03:57:07.361Z,0.00
2018-10-16T03:58:07.324Z,0.00
2018-10-16T03:59:07.406Z,0.00
2018-10-16T04:00:07.289Z,0.00
2018-10-16T04:01:07.291Z,0.00
2018-10-16T04:02:07.287Z,0.00
2018-10-16T04:03:07.212Z,0.00
2018-10-16T04:04:07.290Z,0.00
2018-10-16T04:05:07.214Z,0.00
2018-10-16T04:06:07.218Z,0.00
2018-10-16T04:07:07.215Z,0.00
2018-10-16T04:08:07.214Z,0.00
2018-10-16T04:09:07.175Z,0.00
2018-10-16T04:10:07.175Z,0.00
2018-10-16T04:11:07.175Z,0.00
2018-10-16T04:12:07.175Z,0.00
2018-10-16T04:13:07.106Z,0.00
2018-10-16T04:14:07.180Z,0.00
2018-10-16T04:15:07.177Z,0.00
2018-10-16T04:16:07.099Z,0.00
2018-10-16T04:17:07.183Z,0.00
2018-10-16T04:18:07.178Z,0.00
2018-10-16T04:19:07.100Z,0.00
2018-10-16T04:20:07.066Z,0.00
2018-10-16T04:21:07.070Z,0.00
2018-10-16T04:22:06.999Z,0.00
2018-10-16T04:23:06.988Z,0.00
2018-10-16T04:24:07.068Z,0.00
2018-10-16T04:25:07.065Z,0.00
2018-10-16T04:26:06.988Z,0.00
2018-10-16T04:27:06.984Z,0.00
2018-10-16T04:28:06.987Z,0.00
2018-10-16T04:29:07.022Z,0.00
2018-10-16T04:30:06.950Z,0.00
2018-10-16T04:31:07.070Z,0.00
2018-10-16T04:32:06.949Z,0.00
2018-10-16T04:33:06.884Z,0.00
2018-10-16T04:34:06.879Z,0.00
2018-10-16T04:35:06.882Z,0.00
2018-10-16T04:36:06.876Z,0.00
2018-10-16T04:37:06.957Z,0.00
2018-10-16T04:38:06.878Z,0.00
2018-10-16T04:39:06.834Z,0.00
2018-10-16T04:40:06.842Z,0.00
2018-10-16T04:41:06.836Z,0.00
2018-10-16T04:42:06.837Z,0.00
2018-10-16T04:43:06.767Z,0.00
2018-10-16T04:44:06.763Z,0.00
2018-10-16T04:45:06.755Z,0.00
2018-10-16T04:46:06.873Z,0.00
2018-10-16T04:47:06.764Z,0.00
2018-10-16T04:48:06.764Z,0.00
2018-10-16T04:49:06.727Z,0.00
2018-10-16T04:50:06.723Z,0.00
2018-10-16T04:51:06.725Z,0.00
2018-10-16T04:52:06.722Z,0.00
2018-10-16T04:53:06.729Z,0.00
2018-10-16T04:54:06.648Z,0.00
2018-10-16T04:55:06.730Z,0.00
2018-10-16T04:56:06.661Z,0.00
2018-10-16T04:57:06.654Z,0.00
2018-10-16T04:59:51.418Z,0.00
2018-10-16T05:00:51.247Z,0.00
2018-10-16T05:01:51.249Z,0.00
2018-10-16T05:02:51.260Z,0.00
2018-10-16T05:03:51.145Z,0.00
2018-10-16T05:04:51.132Z,0.00
2018-10-16T05:09:43.095Z,0.00
2018-10-16T05:10:42.735Z,0.00
2018-10-16T05:32:31.997Z,20.00
2018-10-16T05:33:32.714Z,24.00
2018-10-16T05:34:31.592Z,28.00
2018-10-16T05:35:31.612Z,32.00
2018-10-16T05:36:31.835Z,40.00
2018-10-16T05:37:33.280Z,48.00
2018-10-16T05:38:31.483Z,56.00
2018-10-16T05:39:31.475Z,64.00
2018-10-16T05:40:31.396Z,76.00
2018-10-16T05:41:31.401Z,88.00
2018-10-16T05:42:31.489Z,100.00
2018-10-16T05:43:31.393Z,112.00
2018-10-16T05:44:31.360Z,128.00
2018-10-16T05:45:31.362Z,144.00
2018-10-16T05:46:31.400Z,160.00
2018-10-16T05:47:31.361Z,180.00
2018-10-16T05:48:31.408Z,200.00
2018-10-16T05:49:31.285Z,220.00
2018-10-16T05:50:31.363Z,248.00
2018-10-16T05:51:31.286Z,272.00
2018-10-16T05:52:31.365Z,296.00
2018-10-16T05:53:31.292Z,324.00
2018-10-16T05:54:31.318Z,356.00
2018-10-16T05:55:31.247Z,388.00
2018-10-16T05:56:31.247Z,416.00
2018-10-16T05:57:31.248Z,452.00
2018-10-16T05:58:31.250Z,484.00
2018-10-16T05:59:31.175Z,524.00
2018-10-16T06:00:31.172Z,560.00
2018-10-16T06:01:31.173Z,596.00
2018-10-16T06:02:31.170Z,640.00
2018-10-16T06:03:31.258Z,688.00
2018-10-16T06:04:31.253Z,740.00
2018-10-16T06:05:31.172Z,800.00
2018-10-16T06:06:31.142Z,860.00
2018-10-16T06:07:31.144Z,920.00
2018-10-16T06:08:31.401Z,984.00
2018-10-16T06:09:31.057Z,1052.00
2018-10-16T06:10:31.064Z,1112.00
2018-10-16T06:11:31.059Z,1168.00
2018-10-16T06:12:31.071Z,1220.00
2018-10-16T06:13:31.062Z,1272.00
2018-10-16T06:14:31.058Z,1324.00
2018-10-16T06:15:31.022Z,1392.00
2018-10-16T06:16:31.024Z,1464.00
2018-10-16T06:17:31.023Z,1568.00
2018-10-16T06:18:30.949Z,1688.00
2018-10-16T06:19:31.024Z,1808.00
2018-10-16T06:20:31.024Z,1908.00
2018-10-16T06:21:30.958Z,1996.00
2018-10-16T06:22:30.948Z,2076.00
2018-10-16T06:23:31.027Z,2152.00
2018-10-16T06:24:30.977Z,2208.00
2018-10-16T06:25:30.909Z,2248.00
2018-10-16T06:26:31.000Z,2288.00
2018-10-16T06:27:30.965Z,2296.00
2018-10-16T06:28:30.840Z,2300.00
2018-10-16T06:29:30.911Z,2312.00
2018-10-16T06:30:30.835Z,2348.00
2018-10-16T06:31:30.911Z,2412.00
2018-10-16T06:32:30.829Z,2512.00
2018-10-16T06:33:30.828Z,2640.00
2018-10-16T06:34:30.832Z,2788.00
2018-10-16T06:35:30.798Z,2932.00
2018-10-16T06:36:30.794Z,3080.00
2018-10-16T06:37:30.847Z,3212.00
2018-10-16T06:38:30.797Z,3348.00
2018-10-16T06:39:30.796Z,3464.00
2018-10-16T06:40:30.796Z,3572.00
2018-10-16T06:41:30.755Z,3680.00
2018-10-16T06:42:30.805Z,3808.00
2018-10-16T06:43:30.726Z,3936.00
2018-10-16T06:44:30.683Z,4112.00
2018-10-16T06:45:30.680Z,4292.00
2018-10-16T06:46:30.766Z,4472.00
2018-10-16T06:47:30.714Z,4676.00
2018-10-16T06:48:30.989Z,4880.00
2018-10-16T06:49:30.600Z,5072.00
2018-10-16T06:50:30.614Z,5260.00
2018-10-16T06:51:30.600Z,5428.00
2018-10-16T06:52:30.600Z,5584.00
2018-10-16T06:53:30.601Z,5732.00
2018-10-16T06:54:30.611Z,5876.00
2018-10-16T06:55:30.569Z,6008.00
2018-10-16T06:56:30.569Z,6144.00
2018-10-16T06:57:30.569Z,6308.00
2018-10-16T06:58:30.501Z,6476.00
2018-10-16T06:59:30.488Z,6660.00
2018-10-16T07:00:30.573Z,6864.00
2018-10-16T07:01:30.492Z,7068.00
2018-10-16T07:02:30.507Z,7252.00
2018-10-16T07:03:30.492Z,7360.00
2018-10-16T07:04:30.544Z,7428.00
2018-10-16T07:05:30.457Z,7472.00
2018-10-16T07:06:30.565Z,7492.00
2018-10-16T07:07:30.458Z,7552.00
2018-10-16T07:08:30.456Z,7568.00
2018-10-16T07:09:30.374Z,7600.00
2018-10-16T07:10:30.373Z,7628.00
2018-10-16T07:11:30.459Z,7712.00
2018-10-16T07:12:30.460Z,7808.00
2018-10-16T07:13:30.460Z,7880.00
2018-10-16T07:14:30.462Z,7916.00
2018-10-16T07:15:30.342Z,7916.00
2018-10-16T07:16:30.463Z,7912.00
2018-10-16T07:17:30.345Z,7896.00
2018-10-16T07:18:30.344Z,7872.00
2018-10-16T07:19:30.349Z,7912.00
2018-10-16T07:20:30.273Z,8028.00
2018-10-16T07:21:30.425Z,8136.00
2018-10-16T07:22:30.348Z,8204.00
2018-10-16T07:23:30.410Z,8220.00
2018-10-16T07:24:30.273Z,8256.00
2018-10-16T07:25:30.231Z,8372.00
2018-10-16T07:26:30.231Z,8696.00
2018-10-16T07:27:30.232Z,9640.00
2018-10-16T07:28:30.231Z,14828.00
2018-10-16T07:29:30.151Z,9636.00
2018-10-16T07:30:30.150Z,8944.00
2018-10-16T07:31:30.157Z,8712.00
2018-10-16T07:32:30.235Z,8856.00
2018-10-16T07:33:30.233Z,8500.00
2018-10-16T07:34:30.152Z,8400.00
2018-10-16T07:35:30.119Z,8360.00
2018-10-16T07:36:30.118Z,8116.00
2018-10-16T07:37:30.117Z,7880.00
2018-10-16T07:38:30.176Z,7688.00
2018-10-16T07:39:30.118Z,7568.00
2018-10-16T07:40:30.045Z,7520.00
2018-10-16T07:41:30.047Z,7520.00
2018-10-16T07:42:30.038Z,7504.00
2018-10-16T07:43:30.059Z,7548.00
2018-10-16T07:44:30.064Z,7716.00
2018-10-16T07:45:30.006Z,7928.00
2018-10-16T07:46:30.060Z,8268.00
2018-10-16T07:47:30.005Z,8688.00
2018-10-16T07:48:30.077Z,9036.00
2018-10-16T07:49:30.005Z,9284.00
2018-10-16T07:50:29.951Z,9496.00
2018-10-16T07:51:30.007Z,9820.00
2018-10-16T07:52:29.947Z,10616.00
2018-10-16T07:53:29.944Z,10956.00
2018-10-16T07:54:30.008Z,11448.00
2018-10-16T07:55:29.938Z,11892.00
2018-10-16T07:56:29.960Z,12312.00
2018-10-16T07:57:29.891Z,12556.00
2018-10-16T07:58:29.891Z,12760.00
2018-10-16T07:59:29.892Z,12960.00
2018-10-16T08:00:29.919Z,12996.00
2018-10-16T08:01:29.815Z,13584.00
2018-10-16T08:02:29.829Z,17088.00
2018-10-16T08:03:29.820Z,31200.00
2018-10-16T08:04:29.812Z,24832.00
2018-10-16T08:05:29.826Z,15732.00
2018-10-16T08:06:29.780Z,15228.00
2018-10-16T08:07:29.778Z,28384.00
2018-10-16T08:08:29.777Z,15356.00
2018-10-16T08:09:29.778Z,14696.00
2018-10-16T08:10:29.779Z,14572.00
2018-10-16T08:11:29.741Z,13996.00
2018-10-16T08:12:29.782Z,13540.00
2018-10-16T08:13:29.700Z,13384.00
2018-10-16T08:14:29.809Z,12624.00
2018-10-16T08:15:29.707Z,12392.00
2018-10-16T08:16:29.663Z,12332.00
2018-10-16T08:17:29.665Z,12472.00
2018-10-16T08:18:29.666Z,12464.00
2018-10-16T08:19:29.665Z,12892.00
2018-10-16T08:20:29.665Z,14128.00
2018-10-16T08:21:29.588Z,28640.00
2018-10-16T08:22:29.667Z,30304.00
2018-10-16T08:23:29.591Z,25664.00
2018-10-16T08:24:29.591Z,20544.00
2018-10-16T08:25:29.670Z,26272.00
2018-10-16T08:26:29.551Z,18016.00
2018-10-16T08:27:29.592Z,18944.00
2018-10-16T08:28:29.551Z,24672.00
2018-10-16T08:29:29.552Z,17888.00
2018-10-16T08:30:29.525Z,18144.00
2018-10-16T08:31:29.554Z,31968.00
2018-10-16T08:32:29.478Z,40256.00
2018-10-16T08:33:29.556Z,37376.00
2018-10-16T08:34:29.482Z,35520.00
2018-10-16T08:35:29.477Z,26816.00
2018-10-16T08:36:29.617Z,28800.00
2018-10-16T08:37:29.558Z,30176.00
2018-10-16T08:38:29.441Z,31328.00
2018-10-16T08:39:29.438Z,25344.00
2018-10-16T08:40:29.374Z,23744.00
2018-10-16T08:41:29.439Z,21184.00
2018-10-16T08:42:29.442Z,23296.00
2018-10-16T08:43:29.366Z,26944.00
2018-10-16T08:44:29.447Z,32256.00
2018-10-16T08:45:29.363Z,58336.00
2018-10-16T08:46:29.325Z,51456.00
2018-10-16T08:47:29.424Z,41280.00
2018-10-16T08:48:29.326Z,41056.00
2018-10-16T08:49:29.362Z,41280.00
2018-10-16T08:50:29.327Z,44768.00
2018-10-16T08:51:29.252Z,44160.00
2018-10-16T08:52:29.254Z,44896.00
2018-10-16T08:53:29.339Z,47488.00
2018-10-16T08:54:29.248Z,47488.00
2018-10-16T08:55:29.331Z,49696.00
2018-10-16T08:56:29.359Z,52608.00
2018-10-16T08:57:29.214Z,53408.00
2018-10-16T08:58:29.216Z,53120.00
2018-10-16T08:59:29.212Z,47904.00
2018-10-16T09:00:29.144Z,53184.00
2018-10-16T09:01:29.254Z,54976.00
2018-10-16T09:02:29.133Z,54560.00
2018-10-16T09:03:29.149Z,52224.00
2018-10-16T09:04:29.136Z,54112.00
2018-10-16T09:05:29.217Z,51360.00
2018-10-16T09:06:29.142Z,49408.00
2018-10-16T09:07:29.140Z,38080.00
2018-10-16T09:08:29.100Z,22880.00
2018-10-16T09:09:29.103Z,16584.00
2018-10-16T09:10:29.102Z,16424.00
2018-10-16T09:11:29.100Z,15880.00
2018-10-16T09:12:29.027Z,15444.00
2018-10-16T09:13:29.103Z,14940.00
2018-10-16T09:14:29.101Z,14376.00
2018-10-16T09:15:29.025Z,13924.00
2018-10-16T09:16:29.981Z,13600.00
2018-10-16T09:17:28.986Z,13312.00
2018-10-16T09:18:29.028Z,13028.00
2018-10-16T09:19:28.987Z,12772.00
2018-10-16T09:20:28.921Z,12540.00
2018-10-16T09:21:28.921Z,12344.00
2018-10-16T09:22:28.908Z,12200.00
2018-10-16T09:23:28.989Z,12120.00
2018-10-16T09:24:29.053Z,12076.00
2018-10-16T09:25:28.917Z,12036.00
2018-10-16T09:26:28.916Z,12004.00
2018-10-16T09:27:28.873Z,11992.00
2018-10-16T09:28:28.873Z,12044.00
2018-10-16T09:29:28.877Z,12112.00
2018-10-16T09:30:28.874Z,12152.00
2018-10-16T09:31:28.877Z,12136.00
2018-10-16T09:32:28.790Z,12028.00
2018-10-16T09:33:28.793Z,11852.00
2018-10-16T09:34:28.879Z,11760.00
2018-10-16T09:35:28.807Z,11800.00
2018-10-16T09:36:28.795Z,12052.00
2018-10-16T09:37:28.917Z,12556.00
2018-10-16T09:38:28.796Z,13252.00
2018-10-16T09:39:28.761Z,13984.00
2018-10-16T09:40:28.761Z,14588.00
2018-10-16T09:41:28.691Z,15028.00
2018-10-16T09:42:28.684Z,15308.00
2018-10-16T09:43:28.682Z,15424.00
2018-10-16T09:44:28.767Z,15500.00
2018-10-16T09:45:28.698Z,15624.00
2018-10-16T09:46:28.697Z,15760.00
2018-10-16T09:47:28.703Z,15972.00
2018-10-16T09:48:28.688Z,16220.00
2018-10-16T09:49:28.663Z,16412.00
2018-10-16T09:50:28.648Z,16468.00
2018-10-16T09:51:28.648Z,16380.00
2018-10-16T09:52:28.650Z,16196.00
2018-10-16T09:53:28.574Z,15992.00
2018-10-16T09:54:28.651Z,15628.00
2018-10-16T20:49:32.572Z,0.00
2018-10-16T20:50:32.310Z,0.00
